sensor_id;sensor_type;location;lat;lon;timestamp;temperature;humidity
13572;DHT22;6857;53.484;10.216;2024-02-16T00:00:16;11.10;99.90
13572;DHT22;6857;53.484;10.216;2024-02-16T00:02:42;11.10;99.90
13572;DHT22;6857;53.484;10.216;2024-02-16T00:05:09;11.10;99.90
13572;DHT22;6857;53.484;10.216;2024-02-16T00:07:37;11.00;99.90
13572;DHT22;6857;53.484;10.216;2024-02-16T00:10:03;11.00;99.90
13572;DHT22;6857;53.484;10.216;2024-02-16T00:12:33;11.00;99.90
13572;DHT22;6857;53.484;10.216;2024-02-16T00:14:59;11.00;99.90
13572;DHT22;6857;53.484;10.216;2024-02-16T00:17:25;11.00;99.90
13572;DHT22;6857;53.484;10.216;2024-02-16T00:19:56;11.00;99.90
13572;DHT22;6857;53.484;10.216;2024-02-16T00:22:23;10.90;99.90
13572;DHT22;6857;53.484;10.216;2024-02-16T00:24:48;10.90;99.90
13572;DHT22;6857;53.484;10.216;2024-02-16T00:27:15;11.00;99.90
13572;DHT22;6857;53.484;10.216;2024-02-16T00:29:41;10.90;99.90
13572;DHT22;6857;53.484;10.216;2024-02-16T00:32:07;11.00;99.90
13572;DHT22;6857;53.484;10.216;2024-02-16T00:34:34;11.00;99.90
13572;DHT22;6857;53.484;10.216;2024-02-16T00:37:00;11.00;99.90
13572;DHT22;6857;53.484;10.216;2024-02-16T00:39:26;11.00;99.90
13572;DHT22;6857;53.484;10.216;2024-02-16T00:41:51;11.00;99.90
13572;DHT22;6857;53.484;10.216;2024-02-16T00:44:17;10.90;99.90
13572;DHT22;6857;53.484;10.216;2024-02-16T00:46:46;10.90;99.90
13572;DHT22;6857;53.484;10.216;2024-02-16T00:49:12;10.90;99.90
13572;DHT22;6857;53.484;10.216;2024-02-16T00:51:38;10.90;99.90
13572;DHT22;6857;53.484;10.216;2024-02-16T00:54:04;10.90;99.90
13572;DHT22;6857;53.484;10.216;2024-02-16T00:56:31;10.90;99.90
13572;DHT22;6857;53.484;10.216;2024-02-16T00:58:57;10.90;99.90
13572;DHT22;6857;53.484;10.216;2024-02-16T01:01:22;10.90;99.90
13572;DHT22;6857;53.484;10.216;2024-02-16T01:03:50;10.90;99.90
13572;DHT22;6857;53.484;10.216;2024-02-16T01:06:17;10.90;99.90
13572;DHT22;6857;53.484;10.216;2024-02-16T01:08:43;10.80;99.90
13572;DHT22;6857;53.484;10.216;2024-02-16T01:11:08;10.80;99.90
13572;DHT22;6857;53.484;10.216;2024-02-16T01:13:34;10.80;99.90
13572;DHT22;6857;53.484;10.216;2024-02-16T01:16:00;10.80;99.90
13572;DHT22;6857;53.484;10.216;2024-02-16T01:18:29;10.80;99.90
13572;DHT22;6857;53.484;10.216;2024-02-16T01:20:55;10.80;99.90
13572;DHT22;6857;53.484;10.216;2024-02-16T01:23:21;10.80;99.90
13572;DHT22;6857;53.484;10.216;2024-02-16T01:25:46;10.80;99.90
13572;DHT22;6857;53.484;10.216;2024-02-16T01:28:13;10.80;99.90
13572;DHT22;6857;53.484;10.216;2024-02-16T01:30:39;10.80;99.90
13572;DHT22;6857;53.484;10.216;2024-02-16T01:33:05;10.70;99.90
13572;DHT22;6857;53.484;10.216;2024-02-16T01:35:32;10.70;99.90
13572;DHT22;6857;53.484;10.216;2024-02-16T01:37:58;10.70;99.90
13572;DHT22;6857;53.484;10.216;2024-02-16T01:40:23;10.70;99.90
13572;DHT22;6857;53.484;10.216;2024-02-16T01:42:51;10.70;99.90
13572;DHT22;6857;53.484;10.216;2024-02-16T01:45:20;10.80;99.90
13572;DHT22;6857;53.484;10.216;2024-02-16T01:47:47;10.70;99.90
13572;DHT22;6857;53.484;10.216;2024-02-16T01:50:16;10.70;99.90
13572;DHT22;6857;53.484;10.216;2024-02-16T01:52:46;10.80;99.90
13572;DHT22;6857;53.484;10.216;2024-02-16T01:55:12;10.70;99.90
13572;DHT22;6857;53.484;10.216;2024-02-16T01:57:46;10.70;99.90
13572;DHT22;6857;53.484;10.216;2024-02-16T02:00:12;10.70;99.90
13572;DHT22;6857;53.484;10.216;2024-02-16T02:02:40;10.70;99.90
13572;DHT22;6857;53.484;10.216;2024-02-16T02:05:06;10.70;99.90
13572;DHT22;6857;53.484;10.216;2024-02-16T02:07:32;10.70;99.90
13572;DHT22;6857;53.484;10.216;2024-02-16T02:09:58;10.70;99.90
13572;DHT22;6857;53.484;10.216;2024-02-16T02:12:24;10.70;99.90
13572;DHT22;6857;53.484;10.216;2024-02-16T02:14:49;10.70;99.90
13572;DHT22;6857;53.484;10.216;2024-02-16T02:17:16;10.70;99.90
13572;DHT22;6857;53.484;10.216;2024-02-16T02:19:41;10.70;99.90
13572;DHT22;6857;53.484;10.216;2024-02-16T02:22:17;10.70;99.90
13572;DHT22;6857;53.484;10.216;2024-02-16T02:24:44;10.70;99.90
13572;DHT22;6857;53.484;10.216;2024-02-16T02:27:10;10.70;99.90
13572;DHT22;6857;53.484;10.216;2024-02-16T02:29:36;10.70;99.90
13572;DHT22;6857;53.484;10.216;2024-02-16T02:32:01;10.70;99.90
13572;DHT22;6857;53.484;10.216;2024-02-16T02:34:27;10.70;99.90
13572;DHT22;6857;53.484;10.216;2024-02-16T02:36:52;10.70;99.90
13572;DHT22;6857;53.484;10.216;2024-02-16T02:39:18;10.60;99.90
13572;DHT22;6857;53.484;10.216;2024-02-16T02:41:44;10.60;99.90
13572;DHT22;6857;53.484;10.216;2024-02-16T02:44:10;10.70;99.90
13572;DHT22;6857;53.484;10.216;2024-02-16T02:46:36;10.70;99.90
13572;DHT22;6857;53.484;10.216;2024-02-16T02:49:02;10.70;99.90
13572;DHT22;6857;53.484;10.216;2024-02-16T02:51:29;10.60;99.90
13572;DHT22;6857;53.484;10.216;2024-02-16T02:53:54;10.60;99.90
13572;DHT22;6857;53.484;10.216;2024-02-16T02:56:20;10.60;99.90
13572;DHT22;6857;53.484;10.216;2024-02-16T02:58:45;10.60;99.90
13572;DHT22;6857;53.484;10.216;2024-02-16T03:01:12;10.60;99.90
13572;DHT22;6857;53.484;10.216;2024-02-16T03:03:38;10.50;99.90
13572;DHT22;6857;53.484;10.216;2024-02-16T03:06:04;10.50;99.90
13572;DHT22;6857;53.484;10.216;2024-02-16T03:08:30;10.50;99.90
13572;DHT22;6857;53.484;10.216;2024-02-16T03:10:56;10.50;99.90
13572;DHT22;6857;53.484;10.216;2024-02-16T03:13:21;10.50;99.90
13572;DHT22;6857;53.484;10.216;2024-02-16T03:15:47;10.50;99.90
13572;DHT22;6857;53.484;10.216;2024-02-16T03:18:12;10.50;99.90
13572;DHT22;6857;53.484;10.216;2024-02-16T03:20:38;10.50;99.90
13572;DHT22;6857;53.484;10.216;2024-02-16T03:23:04;10.50;99.90
13572;DHT22;6857;53.484;10.216;2024-02-16T03:25:30;10.50;99.90
13572;DHT22;6857;53.484;10.216;2024-02-16T03:27:55;10.50;99.90
13572;DHT22;6857;53.484;10.216;2024-02-16T03:30:22;10.50;99.90
13572;DHT22;6857;53.484;10.216;2024-02-16T03:32:51;10.50;99.90
13572;DHT22;6857;53.484;10.216;2024-02-16T03:35:18;10.50;99.90
13572;DHT22;6857;53.484;10.216;2024-02-16T03:37:44;10.40;99.90
13572;DHT22;6857;53.484;10.216;2024-02-16T03:40:10;10.50;99.90
13572;DHT22;6857;53.484;10.216;2024-02-16T03:42:38;10.50;99.90
13572;DHT22;6857;53.484;10.216;2024-02-16T03:45:04;10.50;99.90
13572;DHT22;6857;53.484;10.216;2024-02-16T03:47:30;10.40;99.90
13572;DHT22;6857;53.484;10.216;2024-02-16T03:49:55;10.40;99.90
13572;DHT22;6857;53.484;10.216;2024-02-16T03:52:21;10.40;99.90
13572;DHT22;6857;53.484;10.216;2024-02-16T03:54:46;10.40;99.90
13572;DHT22;6857;53.484;10.216;2024-02-16T03:57:15;10.30;99.90
13572;DHT22;6857;53.484;10.216;2024-02-16T03:59:42;10.40;99.90
13572;DHT22;6857;53.484;10.216;2024-02-16T04:02:09;10.30;99.90
13572;DHT22;6857;53.484;10.216;2024-02-16T04:04:35;10.30;99.90
13572;DHT22;6857;53.484;10.216;2024-02-16T04:07:00;10.30;99.90
13572;DHT22;6857;53.484;10.216;2024-02-16T04:09:26;10.30;99.90
13572;DHT22;6857;53.484;10.216;2024-02-16T04:11:51;10.30;99.90
13572;DHT22;6857;53.484;10.216;2024-02-16T04:14:17;10.30;99.90
13572;DHT22;6857;53.484;10.216;2024-02-16T04:16:45;10.30;99.90
13572;DHT22;6857;53.484;10.216;2024-02-16T04:19:11;10.30;99.90
13572;DHT22;6857;53.484;10.216;2024-02-16T04:21:36;10.30;99.90
13572;DHT22;6857;53.484;10.216;2024-02-16T04:24:02;10.30;99.90
13572;DHT22;6857;53.484;10.216;2024-02-16T04:26:28;10.30;99.90
13572;DHT22;6857;53.484;10.216;2024-02-16T04:28:54;10.30;99.90
13572;DHT22;6857;53.484;10.216;2024-02-16T04:31:19;10.30;99.90
13572;DHT22;6857;53.484;10.216;2024-02-16T04:33:45;10.40;99.90
13572;DHT22;6857;53.484;10.216;2024-02-16T04:36:11;10.30;99.90
13572;DHT22;6857;53.484;10.216;2024-02-16T04:38:37;10.40;99.90
13572;DHT22;6857;53.484;10.216;2024-02-16T04:41:05;10.40;99.90
13572;DHT22;6857;53.484;10.216;2024-02-16T04:43:30;10.30;99.90
13572;DHT22;6857;53.484;10.216;2024-02-16T04:45:56;10.40;99.90
13572;DHT22;6857;53.484;10.216;2024-02-16T04:48:21;10.40;99.90
13572;DHT22;6857;53.484;10.216;2024-02-16T04:50:47;10.40;99.90
13572;DHT22;6857;53.484;10.216;2024-02-16T04:53:12;10.40;99.90
13572;DHT22;6857;53.484;10.216;2024-02-16T04:55:38;10.40;99.90
13572;DHT22;6857;53.484;10.216;2024-02-16T04:58:03;10.40;99.90
13572;DHT22;6857;53.484;10.216;2024-02-16T05:00:34;10.40;99.90
13572;DHT22;6857;53.484;10.216;2024-02-16T05:03:00;10.50;99.90
13572;DHT22;6857;53.484;10.216;2024-02-16T05:05:25;10.50;99.90
13572;DHT22;6857;53.484;10.216;2024-02-16T05:07:51;10.50;99.90
13572;DHT22;6857;53.484;10.216;2024-02-16T05:10:16;10.50;99.90
13572;DHT22;6857;53.484;10.216;2024-02-16T05:12:42;10.50;99.90
13572;DHT22;6857;53.484;10.216;2024-02-16T05:15:08;10.50;99.90
13572;DHT22;6857;53.484;10.216;2024-02-16T05:17:34;10.50;99.90
13572;DHT22;6857;53.484;10.216;2024-02-16T05:20:00;10.50;99.90
13572;DHT22;6857;53.484;10.216;2024-02-16T05:22:25;10.50;99.90
13572;DHT22;6857;53.484;10.216;2024-02-16T05:24:51;10.50;99.90
13572;DHT22;6857;53.484;10.216;2024-02-16T05:27:16;10.60;99.90
13572;DHT22;6857;53.484;10.216;2024-02-16T05:29:42;10.60;99.90
13572;DHT22;6857;53.484;10.216;2024-02-16T05:32:07;10.60;99.90
13572;DHT22;6857;53.484;10.216;2024-02-16T05:34:33;10.60;99.90
13572;DHT22;6857;53.484;10.216;2024-02-16T05:37:06;10.60;99.90
13572;DHT22;6857;53.484;10.216;2024-02-16T05:39:38;10.60;99.90
13572;DHT22;6857;53.484;10.216;2024-02-16T05:42:21;10.60;99.90
13572;DHT22;6857;53.484;10.216;2024-02-16T05:44:47;10.60;99.90
13572;DHT22;6857;53.484;10.216;2024-02-16T05:47:14;10.50;99.90
13572;DHT22;6857;53.484;10.216;2024-02-16T05:49:39;10.50;99.90
13572;DHT22;6857;53.484;10.216;2024-02-16T05:52:05;10.80;99.90
13572;DHT22;6857;53.484;10.216;2024-02-16T05:54:47;10.20;99.90
13572;DHT22;6857;53.484;10.216;2024-02-16T05:57:13;10.60;99.90
13572;DHT22;6857;53.484;10.216;2024-02-16T05:59:39;10.60;99.90
13572;DHT22;6857;53.484;10.216;2024-02-16T06:02:05;10.70;99.90
13572;DHT22;6857;53.484;10.216;2024-02-16T06:04:32;10.60;99.90
13572;DHT22;6857;53.484;10.216;2024-02-16T06:06:58;10.70;99.90
13572;DHT22;6857;53.484;10.216;2024-02-16T06:09:24;10.70;99.90
13572;DHT22;6857;53.484;10.216;2024-02-16T06:11:50;10.60;99.90
13572;DHT22;6857;53.484;10.216;2024-02-16T06:14:15;10.60;99.90
13572;DHT22;6857;53.484;10.216;2024-02-16T06:16:41;10.60;99.90
13572;DHT22;6857;53.484;10.216;2024-02-16T06:19:08;10.60;99.90
13572;DHT22;6857;53.484;10.216;2024-02-16T06:21:34;10.60;99.90
13572;DHT22;6857;53.484;10.216;2024-02-16T06:24:00;10.60;99.90
13572;DHT22;6857;53.484;10.216;2024-02-16T06:26:25;10.60;99.90
13572;DHT22;6857;53.484;10.216;2024-02-16T06:28:50;10.60;99.90
13572;DHT22;6857;53.484;10.216;2024-02-16T06:31:16;10.60;99.90
13572;DHT22;6857;53.484;10.216;2024-02-16T06:33:42;10.60;99.90
13572;DHT22;6857;53.484;10.216;2024-02-16T06:36:07;10.60;99.90
13572;DHT22;6857;53.484;10.216;2024-02-16T06:38:34;10.50;99.90
13572;DHT22;6857;53.484;10.216;2024-02-16T06:40:59;10.60;99.90
13572;DHT22;6857;53.484;10.216;2024-02-16T06:43:25;10.50;99.90
13572;DHT22;6857;53.484;10.216;2024-02-16T06:45:50;10.60;99.90
13572;DHT22;6857;53.484;10.216;2024-02-16T06:48:16;10.50;99.90
13572;DHT22;6857;53.484;10.216;2024-02-16T06:50:41;10.50;99.90
13572;DHT22;6857;53.484;10.216;2024-02-16T06:53:07;10.50;99.90
13572;DHT22;6857;53.484;10.216;2024-02-16T06:55:32;10.50;99.90
13572;DHT22;6857;53.484;10.216;2024-02-16T06:57:58;10.50;99.90
13572;DHT22;6857;53.484;10.216;2024-02-16T07:00:23;10.50;99.90
13572;DHT22;6857;53.484;10.216;2024-02-16T07:02:49;10.50;99.90
13572;DHT22;6857;53.484;10.216;2024-02-16T07:05:15;10.50;99.90
13572;DHT22;6857;53.484;10.216;2024-02-16T07:07:43;10.50;99.90
13572;DHT22;6857;53.484;10.216;2024-02-16T07:10:08;10.50;99.90
13572;DHT22;6857;53.484;10.216;2024-02-16T07:12:39;10.50;99.90
13572;DHT22;6857;53.484;10.216;2024-02-16T07:15:05;10.50;99.90
13572;DHT22;6857;53.484;10.216;2024-02-16T07:17:30;10.30;99.90
13572;DHT22;6857;53.484;10.216;2024-02-16T07:19:56;10.60;99.90
13572;DHT22;6857;53.484;10.216;2024-02-16T07:22:21;10.90;99.90
13572;DHT22;6857;53.484;10.216;2024-02-16T07:24:47;10.50;99.90
13572;DHT22;6857;53.484;10.216;2024-02-16T07:27:12;10.70;99.90
13572;DHT22;6857;53.484;10.216;2024-02-16T07:29:38;10.60;99.90
13572;DHT22;6857;53.484;10.216;2024-02-16T07:32:04;10.40;99.90
13572;DHT22;6857;53.484;10.216;2024-02-16T07:34:30;10.30;99.90
13572;DHT22;6857;53.484;10.216;2024-02-16T07:36:55;10.40;99.90
13572;DHT22;6857;53.484;10.216;2024-02-16T07:39:22;10.40;99.90
13572;DHT22;6857;53.484;10.216;2024-02-16T07:41:49;10.20;99.90
13572;DHT22;6857;53.484;10.216;2024-02-16T07:44:14;10.50;99.90
13572;DHT22;6857;53.484;10.216;2024-02-16T07:46:41;10.50;99.90
13572;DHT22;6857;53.484;10.216;2024-02-16T07:49:07;10.90;99.90
13572;DHT22;6857;53.484;10.216;2024-02-16T07:51:32;10.50;99.90
13572;DHT22;6857;53.484;10.216;2024-02-16T07:53:58;10.50;99.90
13572;DHT22;6857;53.484;10.216;2024-02-16T07:56:23;10.60;99.90
13572;DHT22;6857;53.484;10.216;2024-02-16T07:58:49;10.60;99.90
13572;DHT22;6857;53.484;10.216;2024-02-16T08:01:15;10.70;99.90
13572;DHT22;6857;53.484;10.216;2024-02-16T08:03:41;10.70;99.90
13572;DHT22;6857;53.484;10.216;2024-02-16T08:06:07;10.70;99.90
13572;DHT22;6857;53.484;10.216;2024-02-16T08:08:32;10.70;99.90
13572;DHT22;6857;53.484;10.216;2024-02-16T08:10:58;10.80;99.90
13572;DHT22;6857;53.484;10.216;2024-02-16T08:13:23;10.90;99.90
13572;DHT22;6857;53.484;10.216;2024-02-16T08:15:49;10.90;99.90
13572;DHT22;6857;53.484;10.216;2024-02-16T08:18:17;10.90;99.90
13572;DHT22;6857;53.484;10.216;2024-02-16T08:20:43;10.90;99.90
13572;DHT22;6857;53.484;10.216;2024-02-16T08:23:08;11.00;99.90
13572;DHT22;6857;53.484;10.216;2024-02-16T08:25:34;11.00;99.90
13572;DHT22;6857;53.484;10.216;2024-02-16T08:27:59;11.10;99.90
13572;DHT22;6857;53.484;10.216;2024-02-16T08:30:25;11.20;99.90
13572;DHT22;6857;53.484;10.216;2024-02-16T08:32:51;11.30;99.90
13572;DHT22;6857;53.484;10.216;2024-02-16T08:35:16;11.30;99.90
13572;DHT22;6857;53.484;10.216;2024-02-16T08:37:43;11.40;99.90
13572;DHT22;6857;53.484;10.216;2024-02-16T08:40:09;11.50;99.90
13572;DHT22;6857;53.484;10.216;2024-02-16T08:42:40;11.70;99.90
13572;DHT22;6857;53.484;10.216;2024-02-16T08:45:06;11.50;99.90
13572;DHT22;6857;53.484;10.216;2024-02-16T08:47:32;11.50;99.90
13572;DHT22;6857;53.484;10.216;2024-02-16T08:49:57;11.50;99.90
13572;DHT22;6857;53.484;10.216;2024-02-16T08:52:23;11.50;99.90
13572;DHT22;6857;53.484;10.216;2024-02-16T08:54:48;11.50;99.90
13572;DHT22;6857;53.484;10.216;2024-02-16T08:57:14;11.50;99.90
13572;DHT22;6857;53.484;10.216;2024-02-16T08:59:39;11.50;99.90
13572;DHT22;6857;53.484;10.216;2024-02-16T09:02:06;11.50;99.90
13572;DHT22;6857;53.484;10.216;2024-02-16T09:04:31;11.60;99.90
13572;DHT22;6857;53.484;10.216;2024-02-16T09:06:57;11.60;99.90
13572;DHT22;6857;53.484;10.216;2024-02-16T09:09:22;11.30;99.90
13572;DHT22;6857;53.484;10.216;2024-02-16T09:11:48;11.70;99.90
13572;DHT22;6857;53.484;10.216;2024-02-16T09:14:14;11.90;99.90
13572;DHT22;6857;53.484;10.216;2024-02-16T09:16:39;11.90;99.90
13572;DHT22;6857;53.484;10.216;2024-02-16T09:19:05;12.00;99.90
13572;DHT22;6857;53.484;10.216;2024-02-16T09:21:31;12.00;99.90
13572;DHT22;6857;53.484;10.216;2024-02-16T09:23:56;12.30;99.90
13572;DHT22;6857;53.484;10.216;2024-02-16T09:26:27;12.40;99.90
13572;DHT22;6857;53.484;10.216;2024-02-16T09:28:56;12.50;99.90
13572;DHT22;6857;53.484;10.216;2024-02-16T09:31:22;12.50;99.90
13572;DHT22;6857;53.484;10.216;2024-02-16T09:33:48;12.50;99.90
13572;DHT22;6857;53.484;10.216;2024-02-16T09:36:14;12.50;99.90
13572;DHT22;6857;53.484;10.216;2024-02-16T09:38:39;12.50;99.90
13572;DHT22;6857;53.484;10.216;2024-02-16T09:41:05;12.50;99.90
13572;DHT22;6857;53.484;10.216;2024-02-16T09:43:31;12.50;99.90
13572;DHT22;6857;53.484;10.216;2024-02-16T09:45:58;12.50;99.90
13572;DHT22;6857;53.484;10.216;2024-02-16T09:48:26;12.50;99.90
13572;DHT22;6857;53.484;10.216;2024-02-16T09:50:57;12.30;99.90
13572;DHT22;6857;53.484;10.216;2024-02-16T09:53:25;12.50;99.90
13572;DHT22;6857;53.484;10.216;2024-02-16T09:55:52;12.50;99.90
13572;DHT22;6857;53.484;10.216;2024-02-16T09:58:18;12.60;99.90
13572;DHT22;6857;53.484;10.216;2024-02-16T10:00:54;12.60;99.90
13572;DHT22;6857;53.484;10.216;2024-02-16T10:03:28;12.60;99.90
13572;DHT22;6857;53.484;10.216;2024-02-16T10:06:04;12.60;99.90
13572;DHT22;6857;53.484;10.216;2024-02-16T10:08:30;12.70;99.90
13572;DHT22;6857;53.484;10.216;2024-02-16T10:11:05;12.80;99.90
13572;DHT22;6857;53.484;10.216;2024-02-16T10:13:31;12.90;99.90
13572;DHT22;6857;53.484;10.216;2024-02-16T10:16:08;13.00;99.90
13572;DHT22;6857;53.484;10.216;2024-02-16T10:18:35;13.20;99.90
13572;DHT22;6857;53.484;10.216;2024-02-16T10:21:01;13.30;99.90
13572;DHT22;6857;53.484;10.216;2024-02-16T10:23:27;13.50;99.90
13572;DHT22;6857;53.484;10.216;2024-02-16T10:25:54;13.40;99.90
13572;DHT22;6857;53.484;10.216;2024-02-16T10:28:20;13.50;99.90
13572;DHT22;6857;53.484;10.216;2024-02-16T10:30:52;13.60;99.90
13572;DHT22;6857;53.484;10.216;2024-02-16T10:33:20;13.80;99.90
13572;DHT22;6857;53.484;10.216;2024-02-16T10:35:46;13.80;99.90
13572;DHT22;6857;53.484;10.216;2024-02-16T10:38:12;14.00;99.90
13572;DHT22;6857;53.484;10.216;2024-02-16T10:40:40;14.10;99.90
13572;DHT22;6857;53.484;10.216;2024-02-16T10:43:07;14.10;99.90
13572;DHT22;6857;53.484;10.216;2024-02-16T10:45:37;14.20;99.90
13572;DHT22;6857;53.484;10.216;2024-02-16T10:48:04;14.20;99.90
13572;DHT22;6857;53.484;10.216;2024-02-16T10:50:34;14.30;99.90
13572;DHT22;6857;53.484;10.216;2024-02-16T10:53:18;14.20;99.90
13572;DHT22;6857;53.484;10.216;2024-02-16T10:55:45;14.20;99.90
13572;DHT22;6857;53.484;10.216;2024-02-16T10:58:11;14.10;99.90
13572;DHT22;6857;53.484;10.216;2024-02-16T11:00:54;14.10;99.90
13572;DHT22;6857;53.484;10.216;2024-02-16T11:03:24;14.10;99.90
13572;DHT22;6857;53.484;10.216;2024-02-16T11:05:51;14.10;99.90
13572;DHT22;6857;53.484;10.216;2024-02-16T11:08:18;14.10;99.90
13572;DHT22;6857;53.484;10.216;2024-02-16T11:11:00;14.10;99.90
13572;DHT22;6857;53.484;10.216;2024-02-16T11:13:28;14.20;99.90
13572;DHT22;6857;53.484;10.216;2024-02-16T11:16:09;14.40;99.90
13572;DHT22;6857;53.484;10.216;2024-02-16T11:18:39;14.40;99.90
13572;DHT22;6857;53.484;10.216;2024-02-16T11:21:05;14.40;99.90
13572;DHT22;6857;53.484;10.216;2024-02-16T11:23:35;14.50;99.90
13572;DHT22;6857;53.484;10.216;2024-02-16T11:26:03;14.70;99.90
13572;DHT22;6857;53.484;10.216;2024-02-16T11:28:32;14.70;99.90
13572;DHT22;6857;53.484;10.216;2024-02-16T11:30:58;14.80;99.90
13572;DHT22;6857;53.484;10.216;2024-02-16T11:33:23;14.80;99.90
13572;DHT22;6857;53.484;10.216;2024-02-16T11:35:56;14.80;99.90
13572;DHT22;6857;53.484;10.216;2024-02-16T11:38:23;14.90;99.90
13572;DHT22;6857;53.484;10.216;2024-02-16T11:40:57;14.90;99.90
13572;DHT22;6857;53.484;10.216;2024-02-16T11:43:23;14.90;99.90
13572;DHT22;6857;53.484;10.216;2024-02-16T11:45:49;15.00;99.90
13572;DHT22;6857;53.484;10.216;2024-02-16T11:50:48;15.50;99.90
13572;DHT22;6857;53.484;10.216;2024-02-16T11:53:20;15.20;99.90
13572;DHT22;6857;53.484;10.216;2024-02-16T11:55:47;15.30;99.90
13572;DHT22;6857;53.484;10.216;2024-02-16T11:58:17;15.40;99.90
13572;DHT22;6857;53.484;10.216;2024-02-16T12:00:46;15.40;99.90
13572;DHT22;6857;53.484;10.216;2024-02-16T12:03:22;15.40;99.90
13572;DHT22;6857;53.484;10.216;2024-02-16T12:05:58;15.50;99.90
13572;DHT22;6857;53.484;10.216;2024-02-16T12:08:24;15.60;99.90
13572;DHT22;6857;53.484;10.216;2024-02-16T12:10:56;15.70;99.90
13572;DHT22;6857;53.484;10.216;2024-02-16T12:13:22;15.60;99.90
13572;DHT22;6857;53.484;10.216;2024-02-16T12:15:48;15.50;99.90
13572;DHT22;6857;53.484;10.216;2024-02-16T12:18:22;15.60;99.90
13572;DHT22;6857;53.484;10.216;2024-02-16T12:21:02;15.60;99.90
13572;DHT22;6857;53.484;10.216;2024-02-16T12:23:29;15.50;99.90
13572;DHT22;6857;53.484;10.216;2024-02-16T12:25:58;15.60;99.90
13572;DHT22;6857;53.484;10.216;2024-02-16T12:28:28;15.60;99.90
13572;DHT22;6857;53.484;10.216;2024-02-16T12:30:57;15.60;99.90
13572;DHT22;6857;53.484;10.216;2024-02-16T12:33:23;15.50;99.90
13572;DHT22;6857;53.484;10.216;2024-02-16T12:35:49;15.50;99.90
13572;DHT22;6857;53.484;10.216;2024-02-16T12:38:15;15.50;99.90
13572;DHT22;6857;53.484;10.216;2024-02-16T12:40:43;15.50;99.90
13572;DHT22;6857;53.484;10.216;2024-02-16T12:43:08;15.60;99.90
13572;DHT22;6857;53.484;10.216;2024-02-16T12:45:36;15.60;99.90
13572;DHT22;6857;53.484;10.216;2024-02-16T12:48:02;15.60;99.90
13572;DHT22;6857;53.484;10.216;2024-02-16T12:50:31;15.90;99.90
13572;DHT22;6857;53.484;10.216;2024-02-16T12:52:57;15.70;99.90
13572;DHT22;6857;53.484;10.216;2024-02-16T12:55:23;15.60;99.90
13572;DHT22;6857;53.484;10.216;2024-02-16T12:57:49;15.60;99.90
13572;DHT22;6857;53.484;10.216;2024-02-16T13:00:15;15.50;99.90
13572;DHT22;6857;53.484;10.216;2024-02-16T13:02:41;15.40;99.90
13572;DHT22;6857;53.484;10.216;2024-02-16T13:05:07;15.30;99.90
13572;DHT22;6857;53.484;10.216;2024-02-16T13:07:33;15.30;99.90
13572;DHT22;6857;53.484;10.216;2024-02-16T13:09:59;15.10;99.90
13572;DHT22;6857;53.484;10.216;2024-02-16T13:12:25;15.10;99.90
13572;DHT22;6857;53.484;10.216;2024-02-16T13:14:50;15.10;99.90
13572;DHT22;6857;53.484;10.216;2024-02-16T13:17:16;15.20;99.90
13572;DHT22;6857;53.484;10.216;2024-02-16T13:19:42;15.00;99.90
13572;DHT22;6857;53.484;10.216;2024-02-16T13:22:07;15.00;99.90
13572;DHT22;6857;53.484;10.216;2024-02-16T13:24:33;15.00;99.90
13572;DHT22;6857;53.484;10.216;2024-02-16T13:26:59;15.00;99.90
13572;DHT22;6857;53.484;10.216;2024-02-16T13:29:24;15.00;99.90
13572;DHT22;6857;53.484;10.216;2024-02-16T13:31:50;15.00;99.90
13572;DHT22;6857;53.484;10.216;2024-02-16T13:34:15;15.00;99.90
13572;DHT22;6857;53.484;10.216;2024-02-16T13:36:41;15.00;99.90
13572;DHT22;6857;53.484;10.216;2024-02-16T13:39:07;15.00;99.90
13572;DHT22;6857;53.484;10.216;2024-02-16T13:41:33;15.00;99.90
13572;DHT22;6857;53.484;10.216;2024-02-16T13:43:59;15.00;99.90
13572;DHT22;6857;53.484;10.216;2024-02-16T13:46:25;15.10;99.90
13572;DHT22;6857;53.484;10.216;2024-02-16T13:48:51;15.10;99.90
13572;DHT22;6857;53.484;10.216;2024-02-16T13:51:16;15.10;99.90
13572;DHT22;6857;53.484;10.216;2024-02-16T13:53:42;15.10;99.90
13572;DHT22;6857;53.484;10.216;2024-02-16T13:56:08;15.00;99.90
13572;DHT22;6857;53.484;10.216;2024-02-16T13:58:34;15.00;99.90
13572;DHT22;6857;53.484;10.216;2024-02-16T14:01:00;15.00;99.90
13572;DHT22;6857;53.484;10.216;2024-02-16T14:03:28;15.00;99.90
13572;DHT22;6857;53.484;10.216;2024-02-16T14:05:54;15.00;99.90
13572;DHT22;6857;53.484;10.216;2024-02-16T14:08:20;15.00;99.90
13572;DHT22;6857;53.484;10.216;2024-02-16T14:10:45;15.00;99.90
13572;DHT22;6857;53.484;10.216;2024-02-16T14:13:11;15.00;99.90
13572;DHT22;6857;53.484;10.216;2024-02-16T14:15:36;15.00;99.90
13572;DHT22;6857;53.484;10.216;2024-02-16T14:18:02;15.00;99.90
13572;DHT22;6857;53.484;10.216;2024-02-16T14:20:28;15.00;99.90
13572;DHT22;6857;53.484;10.216;2024-02-16T14:22:54;15.10;99.90
13572;DHT22;6857;53.484;10.216;2024-02-16T14:25:20;14.90;99.90
13572;DHT22;6857;53.484;10.216;2024-02-16T14:27:45;14.90;99.90
13572;DHT22;6857;53.484;10.216;2024-02-16T14:30:12;14.90;99.90
13572;DHT22;6857;53.484;10.216;2024-02-16T14:32:37;14.90;99.90
13572;DHT22;6857;53.484;10.216;2024-02-16T14:35:04;14.90;99.90
13572;DHT22;6857;53.484;10.216;2024-02-16T14:37:31;14.80;99.90
13572;DHT22;6857;53.484;10.216;2024-02-16T14:39:57;14.70;99.90
13572;DHT22;6857;53.484;10.216;2024-02-16T14:42:24;14.70;99.90
13572;DHT22;6857;53.484;10.216;2024-02-16T14:44:50;14.60;99.90
13572;DHT22;6857;53.484;10.216;2024-02-16T14:47:16;14.60;99.90
13572;DHT22;6857;53.484;10.216;2024-02-16T14:49:42;14.50;99.90
13572;DHT22;6857;53.484;10.216;2024-02-16T14:52:08;14.50;99.90
13572;DHT22;6857;53.484;10.216;2024-02-16T14:54:34;14.50;99.90
13572;DHT22;6857;53.484;10.216;2024-02-16T14:57:00;14.50;99.90
13572;DHT22;6857;53.484;10.216;2024-02-16T14:59:26;14.60;99.90
13572;DHT22;6857;53.484;10.216;2024-02-16T15:01:52;14.50;99.90
13572;DHT22;6857;53.484;10.216;2024-02-16T15:04:18;14.50;99.90
13572;DHT22;6857;53.484;10.216;2024-02-16T15:06:43;14.50;99.90
13572;DHT22;6857;53.484;10.216;2024-02-16T15:09:09;14.50;99.90
13572;DHT22;6857;53.484;10.216;2024-02-16T15:11:35;14.40;99.90
13572;DHT22;6857;53.484;10.216;2024-02-16T15:14:03;14.40;99.90
13572;DHT22;6857;53.484;10.216;2024-02-16T15:16:29;14.40;99.90
13572;DHT22;6857;53.484;10.216;2024-02-16T15:18:54;14.30;99.90
13572;DHT22;6857;53.484;10.216;2024-02-16T15:21:20;14.20;99.90
13572;DHT22;6857;53.484;10.216;2024-02-16T15:23:46;14.10;99.90
13572;DHT22;6857;53.484;10.216;2024-02-16T15:26:11;13.90;99.90
13572;DHT22;6857;53.484;10.216;2024-02-16T15:28:37;13.80;99.90